sensor_id;sensor_type;location;lat;lon;timestamp;pressure;altitude;pressure_sealevel;temperature;humidity
35908;BME280;22003;50.320;8.054;2023-11-19T00:00:04;99367.91;;;7.31;100.00
35908;BME280;22003;50.320;8.054;2023-11-19T00:02:36;99368.16;;;7.28;100.00
35908;BME280;22003;50.320;8.054;2023-11-19T00:05:01;99370.34;;;7.34;100.00
35908;BME280;22003;50.320;8.054;2023-11-19T00:07:26;99377.19;;;7.37;100.00
35908;BME280;22003;50.320;8.054;2023-11-19T00:09:51;99368.44;;;7.36;100.00
35908;BME280;22003;50.320;8.054;2023-11-19T00:12:16;99370.09;;;7.37;100.00
35908;BME280;22003;50.320;8.054;2023-11-19T00:14:42;99360.19;;;7.41;100.00
35908;BME280;22003;50.320;8.054;2023-11-19T00:17:08;99354.09;;;7.40;100.00
35908;BME280;22003;50.320;8.054;2023-11-19T00:19:33;99359.13;;;7.56;100.00
35908;BME280;22003;50.320;8.054;2023-11-19T00:21:58;99361.13;;;7.53;100.00
35908;BME280;22003;50.320;8.054;2023-11-19T00:24:27;99357.13;;;7.84;100.00
35908;BME280;22003;50.320;8.054;2023-11-19T00:26:53;99338.63;;;8.08;100.00
35908;BME280;22003;50.320;8.054;2023-11-19T00:29:18;99287.94;;;8.15;100.00
35908;BME280;22003;50.320;8.054;2023-11-19T00:31:45;99348.44;;;8.65;100.00
35908;BME280;22003;50.320;8.054;2023-11-19T00:34:10;99338.38;;;8.70;100.00
35908;BME280;22003;50.320;8.054;2023-11-19T00:36:36;99232.94;;;8.33;100.00
35908;BME280;22003;50.320;8.054;2023-11-19T00:39:01;99321.13;;;8.99;100.00
35908;BME280;22003;50.320;8.054;2023-11-19T00:41:26;99334.91;;;9.14;100.00
35908;BME280;22003;50.320;8.054;2023-11-19T00:43:51;99327.13;;;9.13;100.00
35908;BME280;22003;50.320;8.054;2023-11-19T00:46:17;99299.50;;;8.94;100.00
35908;BME280;22003;50.320;8.054;2023-11-19T00:48:42;99331.31;;;9.15;100.00
35908;BME280;22003;50.320;8.054;2023-11-19T00:51:08;99265.75;;;8.87;100.00
35908;BME280;22003;50.320;8.054;2023-11-19T00:53:33;99258.16;;;8.71;100.00
35908;BME280;22003;50.320;8.054;2023-11-19T00:55:59;99289.78;;;8.84;100.00
35908;BME280;22003;50.320;8.054;2023-11-19T00:58:24;99270.91;;;8.77;100.00
35908;BME280;22003;50.320;8.054;2023-11-19T01:00:50;99253.63;;;8.62;100.00
35908;BME280;22003;50.320;8.054;2023-11-19T01:03:15;99307.66;;;8.91;100.00
35908;BME280;22003;50.320;8.054;2023-11-19T01:05:43;99298.06;;;9.02;100.00
35908;BME280;22003;50.320;8.054;2023-11-19T01:08:09;99300.91;;;9.10;100.00
35908;BME280;22003;50.320;8.054;2023-11-19T01:10:37;99295.88;;;9.07;100.00
35908;BME280;22003;50.320;8.054;2023-11-19T01:13:02;99285.53;;;9.04;100.00
35908;BME280;22003;50.320;8.054;2023-11-19T01:15:30;99284.72;;;8.92;100.00
35908;BME280;22003;50.320;8.054;2023-11-19T01:17:59;99288.81;;;9.07;100.00
35908;BME280;22003;50.320;8.054;2023-11-19T01:20:24;99273.09;;;8.94;100.00
35908;BME280;22003;50.320;8.054;2023-11-19T01:22:50;99303.22;;;9.03;100.00
35908;BME280;22003;50.320;8.054;2023-11-19T01:25:16;99301.66;;;9.01;100.00
35908;BME280;22003;50.320;8.054;2023-11-19T01:27:41;99248.34;;;8.73;100.00
35908;BME280;22003;50.320;8.054;2023-11-19T01:30:07;99289.50;;;8.87;100.00
35908;BME280;22003;50.320;8.054;2023-11-19T01:32:35;99283.66;;;8.83;100.00
35908;BME280;22003;50.320;8.054;2023-11-19T01:35:02;99282.44;;;8.98;100.00
35908;BME280;22003;50.320;8.054;2023-11-19T01:37:27;99281.22;;;9.14;100.00
35908;BME280;22003;50.320;8.054;2023-11-19T01:39:52;99270.31;;;8.85;100.00
35908;BME280;22003;50.320;8.054;2023-11-19T01:42:18;99278.72;;;8.90;100.00
35908;BME280;22003;50.320;8.054;2023-11-19T01:44:55;99269.69;;;8.70;100.00
35908;BME280;22003;50.320;8.054;2023-11-19T01:47:21;99280.41;;;8.80;100.00
35908;BME280;22003;50.320;8.054;2023-11-19T01:49:46;99295.16;;;8.93;100.00
35908;BME280;22003;50.320;8.054;2023-11-19T01:52:12;99287.69;;;9.21;100.00
35908;BME280;22003;50.320;8.054;2023-11-19T01:54:37;99281.69;;;9.19;100.00
35908;BME280;22003;50.320;8.054;2023-11-19T01:57:03;99272.59;;;9.12;100.00
35908;BME280;22003;50.320;8.054;2023-11-19T01:59:28;99274.13;;;9.03;100.00
35908;BME280;22003;50.320;8.054;2023-11-19T02:01:54;99237.53;;;8.76;100.00
35908;BME280;22003;50.320;8.054;2023-11-19T02:04:20;99258.91;;;8.95;100.00
35908;BME280;22003;50.320;8.054;2023-11-19T02:06:46;99252.88;;;8.82;100.00
35908;BME280;22003;50.320;8.054;2023-11-19T02:09:13;99267.78;;;9.06;100.00
35908;BME280;22003;50.320;8.054;2023-11-19T02:11:41;99243.41;;;8.91;100.00
35908;BME280;22003;50.320;8.054;2023-11-19T02:14:07;99258.91;;;9.07;100.00
35908;BME280;22003;50.320;8.054;2023-11-19T02:16:32;99249.03;;;8.97;100.00
35908;BME280;22003;50.320;8.054;2023-11-19T02:18:57;99176.75;;;8.87;100.00
35908;BME280;22003;50.320;8.054;2023-11-19T02:21:23;99236.78;;;9.08;100.00
35908;BME280;22003;50.320;8.054;2023-11-19T02:23:48;99230.66;;;9.18;100.00
35908;BME280;22003;50.320;8.054;2023-11-19T02:26:30;99232.94;;;9.12;100.00
35908;BME280;22003;50.320;8.054;2023-11-19T02:28:58;99223.03;;;9.36;100.00
35908;BME280;22003;50.320;8.054;2023-11-19T02:31:23;99226.75;;;9.45;100.00
35908;BME280;22003;50.320;8.054;2023-11-19T02:33:48;99218.94;;;9.32;100.00
35908;BME280;22003;50.320;8.054;2023-11-19T02:36:15;99214.38;;;9.34;100.00
35908;BME280;22003;50.320;8.054;2023-11-19T02:38:40;99220.75;;;9.32;100.00
35908;BME280;22003;50.320;8.054;2023-11-19T02:41:06;99184.88;;;9.18;100.00
35908;BME280;22003;50.320;8.054;2023-11-19T02:43:32;99224.13;;;9.34;100.00
35908;BME280;22003;50.320;8.054;2023-11-19T02:46:00;99234.31;;;9.70;100.00
35908;BME280;22003;50.320;8.054;2023-11-19T02:48:25;99225.69;;;9.68;100.00
35908;BME280;22003;50.320;8.054;2023-11-19T02:50:51;99219.34;;;9.60;100.00
35908;BME280;22003;50.320;8.054;2023-11-19T02:53:17;99221.78;;;9.51;100.00
35908;BME280;22003;50.320;8.054;2023-11-19T02:55:43;99212.91;;;9.41;100.00
35908;BME280;22003;50.320;8.054;2023-11-19T02:58:13;99229.66;;;9.63;100.00
35908;BME280;22003;50.320;8.054;2023-11-19T03:00:45;99225.88;;;9.56;100.00
35908;BME280;22003;50.320;8.054;2023-11-19T03:03:19;99221.97;;;9.60;100.00
35908;BME280;22003;50.320;8.054;2023-11-19T03:05:47;99216.91;;;9.68;100.00
35908;BME280;22003;50.320;8.054;2023-11-19T03:08:14;99216.22;;;9.55;100.00
35908;BME280;22003;50.320;8.054;2023-11-19T03:10:40;99223.75;;;9.70;100.00
35908;BME280;22003;50.320;8.054;2023-11-19T03:13:11;99205.81;;;9.74;100.00
35908;BME280;22003;50.320;8.054;2023-11-19T03:15:37;99196.00;;;9.65;100.00
35908;BME280;22003;50.320;8.054;2023-11-19T03:18:03;99206.06;;;9.71;100.00
35908;BME280;22003;50.320;8.054;2023-11-19T03:20:28;99210.06;;;9.65;100.00
35908;BME280;22003;50.320;8.054;2023-11-19T03:22:55;99208.38;;;9.64;100.00
35908;BME280;22003;50.320;8.054;2023-11-19T03:25:20;99192.88;;;9.60;100.00
35908;BME280;22003;50.320;8.054;2023-11-19T03:27:45;99212.00;;;9.63;100.00
35908;BME280;22003;50.320;8.054;2023-11-19T03:30:11;99180.69;;;9.47;100.00
35908;BME280;22003;50.320;8.054;2023-11-19T03:32:37;99176.69;;;9.53;100.00
35908;BME280;22003;50.320;8.054;2023-11-19T03:35:04;99197.88;;;9.74;100.00
35908;BME280;22003;50.320;8.054;2023-11-19T03:37:32;99203.22;;;10.04;100.00
35908;BME280;22003;50.320;8.054;2023-11-19T03:39:58;99187.53;;;9.71;100.00
35908;BME280;22003;50.320;8.054;2023-11-19T03:42:25;99112.41;;;9.52;100.00
35908;BME280;22003;50.320;8.054;2023-11-19T03:44:52;99185.28;;;9.87;100.00
35908;BME280;22003;50.320;8.054;2023-11-19T03:47:17;99181.19;;;9.94;100.00
35908;BME280;22003;50.320;8.054;2023-11-19T03:49:47;99185.50;;;9.74;100.00
35908;BME280;22003;50.320;8.054;2023-11-19T03:52:13;99187.63;;;9.81;100.00
35908;BME280;22003;50.320;8.054;2023-11-19T03:54:38;99189.44;;;10.01;100.00
35908;BME280;22003;50.320;8.054;2023-11-19T03:57:04;99194.81;;;10.11;100.00
35908;BME280;22003;50.320;8.054;2023-11-19T03:59:30;99187.31;;;9.95;100.00
35908;BME280;22003;50.320;8.054;2023-11-19T04:01:55;99193.31;;;9.97;100.00
35908;BME280;22003;50.320;8.054;2023-11-19T04:04:21;99177.63;;;10.26;100.00
35908;BME280;22003;50.320;8.054;2023-11-19T04:06:47;99178.53;;;9.94;100.00
35908;BME280;22003;50.320;8.054;2023-11-19T04:09:12;99165.53;;;9.70;100.00
35908;BME280;22003;50.320;8.054;2023-11-19T04:11:37;99136.56;;;9.48;100.00
35908;BME280;22003;50.320;8.054;2023-11-19T04:14:02;99132.25;;;9.47;100.00
35908;BME280;22003;50.320;8.054;2023-11-19T04:16:28;99167.44;;;9.79;100.00
35908;BME280;22003;50.320;8.054;2023-11-19T04:18:54;99171.81;;;9.90;100.00
35908;BME280;22003;50.320;8.054;2023-11-19T04:21:19;99158.13;;;9.85;100.00
35908;BME280;22003;50.320;8.054;2023-11-19T04:23:44;99156.91;;;9.89;100.00
35908;BME280;22003;50.320;8.054;2023-11-19T04:26:09;99172.78;;;9.89;100.00
35908;BME280;22003;50.320;8.054;2023-11-19T04:28:34;99165.69;;;9.90;100.00
35908;BME280;22003;50.320;8.054;2023-11-19T04:31:00;99171.38;;;9.85;100.00
35908;BME280;22003;50.320;8.054;2023-11-19T04:33:25;99178.94;;;9.90;100.00
35908;BME280;22003;50.320;8.054;2023-11-19T04:35:50;99175.38;;;10.00;100.00
35908;BME280;22003;50.320;8.054;2023-11-19T04:38:15;99166.38;;;9.92;100.00
35908;BME280;22003;50.320;8.054;2023-11-19T04:40:41;99172.13;;;9.97;100.00
35908;BME280;22003;50.320;8.054;2023-11-19T04:43:07;99181.66;;;9.99;100.00
35908;BME280;22003;50.320;8.054;2023-11-19T04:45:32;99175.38;;;10.00;100.00
35908;BME280;22003;50.320;8.054;2023-11-19T04:47:57;99175.75;;;9.96;100.00
35908;BME280;22003;50.320;8.054;2023-11-19T04:50:22;99179.47;;;9.93;100.00
35908;BME280;22003;50.320;8.054;2023-11-19T04:52:48;99172.06;;;9.87;100.00
35908;BME280;22003;50.320;8.054;2023-11-19T04:55:13;99170.59;;;9.94;100.00
35908;BME280;22003;50.320;8.054;2023-11-19T04:57:39;99167.75;;;10.28;100.00
35908;BME280;22003;50.320;8.054;2023-11-19T05:00:05;99148.19;;;9.98;100.00
35908;BME280;22003;50.320;8.054;2023-11-19T05:02:30;99157.59;;;10.12;100.00
35908;BME280;22003;50.320;8.054;2023-11-19T05:04:55;99185.22;;;10.40;100.00
35908;BME280;22003;50.320;8.054;2023-11-19T05:07:21;99176.75;;;10.46;100.00
35908;BME280;22003;50.320;8.054;2023-11-19T05:09:46;99173.91;;;10.38;100.00
35908;BME280;22003;50.320;8.054;2023-11-19T05:12:11;99180.63;;;10.42;100.00
35908;BME280;22003;50.320;8.054;2023-11-19T05:14:37;99184.59;;;10.57;100.00
35908;BME280;22003;50.320;8.054;2023-11-19T05:17:02;99185.94;;;10.42;100.00
35908;BME280;22003;50.320;8.054;2023-11-19T05:19:27;99181.13;;;10.57;100.00
35908;BME280;22003;50.320;8.054;2023-11-19T05:21:53;99156.50;;;10.66;100.00
35908;BME280;22003;50.320;8.054;2023-11-19T05:24:18;99181.88;;;10.69;100.00
35908;BME280;22003;50.320;8.054;2023-11-19T05:26:44;99174.06;;;10.77;100.00
35908;BME280;22003;50.320;8.054;2023-11-19T05:29:09;99159.72;;;10.39;100.00
35908;BME280;22003;50.320;8.054;2023-11-19T05:31:34;99172.91;;;10.29;100.00
35908;BME280;22003;50.320;8.054;2023-11-19T05:34:00;99189.56;;;10.41;100.00
35908;BME280;22003;50.320;8.054;2023-11-19T05:36:25;99170.47;;;10.17;100.00
35908;BME280;22003;50.320;8.054;2023-11-19T05:38:50;99160.56;;;10.19;100.00
35908;BME280;22003;50.320;8.054;2023-11-19T05:41:15;99166.31;;;10.03;100.00
35908;BME280;22003;50.320;8.054;2023-11-19T05:43:41;99172.66;;;10.12;100.00
35908;BME280;22003;50.320;8.054;2023-11-19T05:46:07;99177.22;;;10.10;100.00
35908;BME280;22003;50.320;8.054;2023-11-19T05:48:33;99137.94;;;9.63;100.00
35908;BME280;22003;50.320;8.054;2023-11-19T05:50:58;99173.50;;;10.12;100.00
35908;BME280;22003;50.320;8.054;2023-11-19T05:53:23;99199.69;;;10.36;100.00
35908;BME280;22003;50.320;8.054;2023-11-19T05:55:49;99198.63;;;10.39;100.00
35908;BME280;22003;50.320;8.054;2023-11-19T05:58:26;99187.25;;;10.06;100.00
35908;BME280;22003;50.320;8.054;2023-11-19T06:00:54;99200.94;;;10.63;100.00
35908;BME280;22003;50.320;8.054;2023-11-19T06:03:19;99204.75;;;10.39;100.00
35908;BME280;22003;50.320;8.054;2023-11-19T06:05:46;99201.13;;;10.40;100.00
35908;BME280;22003;50.320;8.054;2023-11-19T06:08:12;99211.50;;;10.32;100.00
35908;BME280;22003;50.320;8.054;2023-11-19T06:10:40;99208.28;;;10.08;100.00
35908;BME280;22003;50.320;8.054;2023-11-19T06:13:05;99202.88;;;10.30;100.00
35908;BME280;22003;50.320;8.054;2023-11-19T06:15:31;99206.22;;;10.11;100.00
35908;BME280;22003;50.320;8.054;2023-11-19T06:17:58;99192.56;;;10.16;100.00
35908;BME280;22003;50.320;8.054;2023-11-19T06:20:25;99176.84;;;10.14;100.00
35908;BME280;22003;50.320;8.054;2023-11-19T06:22:53;99220.03;;;10.15;100.00
35908;BME280;22003;50.320;8.054;2023-11-19T06:25:18;99213.16;;;10.23;100.00
35908;BME280;22003;50.320;8.054;2023-11-19T06:27:43;99214.69;;;10.26;100.00
35908;BME280;22003;50.320;8.054;2023-11-19T06:30:09;99206.41;;;9.98;100.00
35908;BME280;22003;50.320;8.054;2023-11-19T06:32:35;99234.88;;;10.06;100.00
35908;BME280;22003;50.320;8.054;2023-11-19T06:35:00;99221.47;;;10.40;100.00
35908;BME280;22003;50.320;8.054;2023-11-19T06:37:25;99222.34;;;10.08;100.00
35908;BME280;22003;50.320;8.054;2023-11-19T06:39:52;99221.66;;;10.06;100.00
35908;BME280;22003;50.320;8.054;2023-11-19T06:42:17;99228.41;;;9.99;100.00
35908;BME280;22003;50.320;8.054;2023-11-19T06:44:42;99223.13;;;10.20;100.00
35908;BME280;22003;50.320;8.054;2023-11-19T06:47:08;99214.22;;;10.42;100.00
35908;BME280;22003;50.320;8.054;2023-11-19T06:49:33;99220.03;;;10.36;100.00
35908;BME280;22003;50.320;8.054;2023-11-19T06:51:58;99221.00;;;10.14;100.00
35908;BME280;22003;50.320;8.054;2023-11-19T06:54:24;99224.41;;;9.84;100.00
35908;BME280;22003;50.320;8.054;2023-11-19T06:56:49;99193.91;;;9.47;100.00
35908;BME280;22003;50.320;8.054;2023-11-19T06:59:14;99217.84;;;9.78;100.00
35908;BME280;22003;50.320;8.054;2023-11-19T07:01:40;99238.22;;;9.87;100.00
35908;BME280;22003;50.320;8.054;2023-11-19T07:04:10;99207.41;;;9.44;100.00
35908;BME280;22003;50.320;8.054;2023-11-19T07:06:35;99219.34;;;9.60;100.00
35908;BME280;22003;50.320;8.054;2023-11-19T07:09:02;99218.44;;;9.38;100.00
35908;BME280;22003;50.320;8.054;2023-11-19T07:11:38;99244.56;;;9.64;100.00
35908;BME280;22003;50.320;8.054;2023-11-19T07:14:04;99253.75;;;9.48;100.00
35908;BME280;22003;50.320;8.054;2023-11-19T07:16:30;99216.31;;;9.32;100.00
35908;BME280;22003;50.320;8.054;2023-11-19T07:18:55;99242.84;;;9.74;100.00
35908;BME280;22003;50.320;8.054;2023-11-19T07:21:21;99241.69;;;9.67;100.00
35908;BME280;22003;50.320;8.054;2023-11-19T07:23:46;99240.81;;;9.34;100.00
35908;BME280;22003;50.320;8.054;2023-11-19T07:26:12;99248.22;;;9.51;100.00
35908;BME280;22003;50.320;8.054;2023-11-19T07:28:37;99241.31;;;9.28;100.00
35908;BME280;22003;50.320;8.054;2023-11-19T07:31:03;99243.19;;;9.37;100.00
35908;BME280;22003;50.320;8.054;2023-11-19T07:33:29;99254.91;;;9.23;100.00
35908;BME280;22003;50.320;8.054;2023-11-19T07:35:55;99253.59;;;9.18;100.00
35908;BME280;22003;50.320;8.054;2023-11-19T07:38:21;99259.81;;;9.28;100.00
35908;BME280;22003;50.320;8.054;2023-11-19T07:40:46;99263.44;;;9.59;100.00
35908;BME280;22003;50.320;8.054;2023-11-19T07:43:12;99251.94;;;9.49;100.00
35908;BME280;22003;50.320;8.054;2023-11-19T07:45:37;99208.50;;;9.31;100.00
35908;BME280;22003;50.320;8.054;2023-11-19T07:48:03;99267.88;;;9.70;100.00
35908;BME280;22003;50.320;8.054;2023-11-19T07:50:28;99275.34;;;9.65;100.00
35908;BME280;22003;50.320;8.054;2023-11-19T07:52:56;99278.72;;;9.67;100.00
35908;BME280;22003;50.320;8.054;2023-11-19T07:55:21;99264.06;;;9.95;100.00
35908;BME280;22003;50.320;8.054;2023-11-19T07:57:47;99278.16;;;9.84;100.00
35908;BME280;22003;50.320;8.054;2023-11-19T08:00:14;99281.31;;;9.78;100.00
35908;BME280;22003;50.320;8.054;2023-11-19T08:02:39;99287.50;;;9.88;100.00
35908;BME280;22003;50.320;8.054;2023-11-19T08:05:05;99294.66;;;9.76;100.00
35908;BME280;22003;50.320;8.054;2023-11-19T08:07:31;99285.88;;;9.76;100.00
35908;BME280;22003;50.320;8.054;2023-11-19T08:09:56;99292.41;;;9.72;100.00
35908;BME280;22003;50.320;8.054;2023-11-19T08:12:21;99278.22;;;10.05;100.00
35908;BME280;22003;50.320;8.054;2023-11-19T08:14:47;99292.88;;;9.98;100.00
35908;BME280;22003;50.320;8.054;2023-11-19T08:17:12;99281.72;;;10.26;100.00
35908;BME280;22003;50.320;8.054;2023-11-19T08:19:37;99277.69;;;10.74;100.00
35908;BME280;22003;50.320;8.054;2023-11-19T08:22:02;99286.72;;;10.71;100.00
35908;BME280;22003;50.320;8.054;2023-11-19T08:24:28;99285.53;;;10.85;100.00
35908;BME280;22003;50.320;8.054;2023-11-19T08:26:53;99288.97;;;11.06;100.00
35908;BME280;22003;50.320;8.054;2023-11-19T08:29:19;99280.84;;;10.98;100.00
35908;BME280;22003;50.320;8.054;2023-11-19T08:31:44;99279.38;;;11.05;100.00
35908;BME280;22003;50.320;8.054;2023-11-19T08:34:11;99232.34;;;11.07;100.00
35908;BME280;22003;50.320;8.054;2023-11-19T08:36:37;99285.75;;;11.53;97.24
35908;BME280;22003;50.320;8.054;2023-11-19T08:39:03;99274.75;;;11.57;96.80
35908;BME280;22003;50.320;8.054;2023-11-19T08:41:28;99289.50;;;11.41;98.36
35908;BME280;22003;50.320;8.054;2023-11-19T08:43:53;99286.34;;;11.76;97.00
35908;BME280;22003;50.320;8.054;2023-11-19T08:46:18;99291.78;;;11.64;95.70
35908;BME280;22003;50.320;8.054;2023-11-19T08:48:44;99293.47;;;11.75;94.73
35908;BME280;22003;50.320;8.054;2023-11-19T08:51:09;99289.31;;;11.92;92.88
35908;BME280;22003;50.320;8.054;2023-11-19T08:53:35;99294.22;;;11.87;92.68
35908;BME280;22003;50.320;8.054;2023-11-19T08:56:00;99274.22;;;11.93;91.14
35908;BME280;22003;50.320;8.054;2023-11-19T08:58:27;99294.34;;;12.24;91.63
35908;BME280;22003;50.320;8.054;2023-11-19T09:00:53;99292.53;;;12.34;89.01
35908;BME280;22003;50.320;8.054;2023-11-19T09:03:18;99288.91;;;12.16;88.05
35908;BME280;22003;50.320;8.054;2023-11-19T09:05:43;99288.75;;;12.18;88.30
35908;BME280;22003;50.320;8.054;2023-11-19T09:08:08;99305.94;;;12.04;88.65
35908;BME280;22003;50.320;8.054;2023-11-19T09:10:34;99296.59;;;12.29;86.78
35908;BME280;22003;50.320;8.054;2023-11-19T09:12:59;99295.03;;;12.36;83.65
35908;BME280;22003;50.320;8.054;2023-11-19T09:15:24;99303.25;;;12.42;83.78
35908;BME280;22003;50.320;8.054;2023-11-19T09:17:49;99304.66;;;12.56;82.79
35908;BME280;22003;50.320;8.054;2023-11-19T09:20:15;99296.59;;;12.38;80.38
35908;BME280;22003;50.320;8.054;2023-11-19T09:22:41;99269.47;;;12.25;79.41
35908;BME280;22003;50.320;8.054;2023-11-19T09:25:07;99285.66;;;12.51;80.28
35908;BME280;22003;50.320;8.054;2023-11-19T09:27:32;99297.38;;;12.49;78.57
35908;BME280;22003;50.320;8.054;2023-11-19T09:29:57;99299.88;;;12.60;76.35
35908;BME280;22003;50.320;8.054;2023-11-19T09:32:24;99274.03;;;12.52;76.06
35908;BME280;22003;50.320;8.054;2023-11-19T09:34:49;99298.59;;;12.74;76.20
35908;BME280;22003;50.320;8.054;2023-11-19T09:37:15;99296.09;;;12.72;75.86
35908;BME280;22003;50.320;8.054;2023-11-19T09:39:40;99298.34;;;12.57;75.96
35908;BME280;22003;50.320;8.054;2023-11-19T09:42:09;99270.22;;;12.64;75.45
35908;BME280;22003;50.320;8.054;2023-11-19T09:44:34;99304.25;;;12.98;75.78
35908;BME280;22003;50.320;8.054;2023-11-19T09:47:00;99266.84;;;12.72;74.71
35908;BME280;22003;50.320;8.054;2023-11-19T09:49:27;99308.56;;;12.99;75.18
35908;BME280;22003;50.320;8.054;2023-11-19T09:51:52;99301.19;;;12.93;74.33
35908;BME280;22003;50.320;8.054;2023-11-19T09:54:17;99314.69;;;13.09;74.68
35908;BME280;22003;50.320;8.054;2023-11-19T09:56:43;99291.94;;;12.97;76.23
35908;BME280;22003;50.320;8.054;2023-11-19T09:59:08;99308.94;;;13.14;74.80
35908;BME280;22003;50.320;8.054;2023-11-19T10:01:37;99314.81;;;13.17;74.59
35908;BME280;22003;50.320;8.054;2023-11-19T10:04:03;99306.09;;;13.35;74.89
35908;BME280;22003;50.320;8.054;2023-11-19T10:06:28;99302.91;;;13.49;74.32
35908;BME280;22003;50.320;8.054;2023-11-19T10:08:53;99308.59;;;13.36;74.36
35908;BME280;22003;50.320;8.054;2023-11-19T10:11:20;99300.00;;;13.42;73.87
35908;BME280;22003;50.320;8.054;2023-11-19T10:13:46;99265.69;;;13.22;73.61
35908;BME280;22003;50.320;8.054;2023-11-19T10:16:12;99314.50;;;13.58;72.65
35908;BME280;22003;50.320;8.054;2023-11-19T10:18:45;99316.03;;;13.60;72.44
35908;BME280;22003;50.320;8.054;2023-11-19T10:21:14;99271.25;;;13.28;72.88
35908;BME280;22003;50.320;8.054;2023-11-19T10:23:49;99278.28;;;13.65;73.66
35908;BME280;22003;50.320;8.054;2023-11-19T10:26:16;99278.59;;;13.44;71.85
35908;BME280;22003;50.320;8.054;2023-11-19T10:28:41;99276.41;;;13.57;70.90
35908;BME280;22003;50.320;8.054;2023-11-19T10:31:09;99316.91;;;13.51;73.23
35908;BME280;22003;50.320;8.054;2023-11-19T10:33:34;99315.47;;;13.57;71.43
35908;BME280;22003;50.320;8.054;2023-11-19T10:35:59;99304.69;;;13.58;71.70
35908;BME280;22003;50.320;8.054;2023-11-19T10:38:25;99307.25;;;13.50;72.53
35908;BME280;22003;50.320;8.054;2023-11-19T10:40:52;99307.47;;;13.39;72.75
35908;BME280;22003;50.320;8.054;2023-11-19T10:43:18;99304.22;;;13.45;73.20
35908;BME280;22003;50.320;8.054;2023-11-19T10:45:43;99318.78;;;13.68;73.14
35908;BME280;22003;50.320;8.054;2023-11-19T10:48:09;99293.16;;;13.67;72.09
35908;BME280;22003;50.320;8.054;2023-11-19T10:50:36;99266.75;;;13.56;72.35
35908;BME280;22003;50.320;8.054;2023-11-19T10:53:03;99288.28;;;13.98;71.58
35908;BME280;22003;50.320;8.054;2023-11-19T10:55:31;99283.78;;;13.99;71.81
35908;BME280;22003;50.320;8.054;2023-11-19T10:58:02;99291.94;;;13.80;71.80
35908;BME280;22003;50.320;8.054;2023-11-19T11:00:29;99253.66;;;13.63;72.08
35908;BME280;22003;50.320;8.054;2023-11-19T11:03:01;99288.97;;;14.18;71.90
35908;BME280;22003;50.320;8.054;2023-11-19T11:05:29;99216.34;;;13.72;69.55
35908;BME280;22003;50.320;8.054;2023-11-19T11:07:58;99265.03;;;14.26;70.03
35908;BME280;22003;50.320;8.054;2023-11-19T11:10:26;99258.59;;;13.93;70.08
35908;BME280;22003;50.320;8.054;2023-11-19T11:12:52;99274.25;;;14.14;69.62
35908;BME280;22003;50.320;8.054;2023-11-19T11:15:26;99269.63;;;14.60;70.28
35908;BME280;22003;50.320;8.054;2023-11-19T11:17:59;99254.91;;;14.48;69.50
35908;BME280;22003;50.320;8.054;2023-11-19T11:20:30;99250.41;;;14.74;68.63
35908;BME280;22003;50.320;8.054;2023-11-19T11:23:35;99254.63;;;14.59;68.16
35908;BME280;22003;50.320;8.054;2023-11-19T11:28:59;99254.50;;;14.61;69.28
35908;BME280;22003;50.320;8.054;2023-11-19T11:31:36;99230.75;;;14.32;67.86
35908;BME280;22003;50.320;8.054;2023-11-19T11:37:35;99253.22;;;14.47;68.10
35908;BME280;22003;50.320;8.054;2023-11-19T11:40:03;99215.06;;;14.03;67.54
35908;BME280;22003;50.320;8.054;2023-11-19T11:42:36;99220.38;;;14.20;67.50
35908;BME280;22003;50.320;8.054;2023-11-19T11:50:17;99223.22;;;14.01;67.16
35908;BME280;22003;50.320;8.054;2023-11-19T11:55:36;99235.25;;;14.05;67.08
35908;BME280;22003;50.320;8.054;2023-11-19T11:58:10;99246.13;;;14.12;67.09
35908;BME280;22003;50.320;8.054;2023-11-19T12:00:40;99246.28;;;14.54;66.81
35908;BME280;22003;50.320;8.054;2023-11-19T12:03:07;99242.00;;;14.61;66.89
35908;BME280;22003;50.320;8.054;2023-11-19T12:05:38;99207.22;;;14.19;65.68
35908;BME280;22003;50.320;8.054;2023-11-19T12:08:06;99242.31;;;14.58;65.77
35908;BME280;22003;50.320;8.054;2023-11-19T12:10:36;99238.88;;;14.66;66.33
35908;BME280;22003;50.320;8.054;2023-11-19T12:13:04;99187.31;;;14.57;65.50
35908;BME280;22003;50.320;8.054;2023-11-19T12:15:32;99187.69;;;14.62;64.94
35908;BME280;22003;50.320;8.054;2023-11-19T12:17:57;99158.25;;;14.20;65.51
35908;BME280;22003;50.320;8.054;2023-11-19T12:20:24;99222.97;;;14.56;65.61
35908;BME280;22003;50.320;8.054;2023-11-19T12:22:51;99144.25;;;13.92;65.31
35908;BME280;22003;50.320;8.054;2023-11-19T12:25:17;99209.97;;;14.35;66.16
35908;BME280;22003;50.320;8.054;2023-11-19T12:27:47;99206.50;;;14.61;65.72
35908;BME280;22003;50.320;8.054;2023-11-19T12:30:26;99203.47;;;14.56;65.44
35908;BME280;22003;50.320;8.054;2023-11-19T12:32:52;99209.31;;;14.59;65.50
35908;BME280;22003;50.320;8.054;2023-11-19T12:35:20;99203.63;;;14.54;65.05
35908;BME280;22003;50.320;8.054;2023-11-19T12:37:47;99198.09;;;14.47;64.42
35908;BME280;22003;50.320;8.054;2023-11-19T12:40:20;99198.59;;;14.25;65.03
35908;BME280;22003;50.320;8.054;2023-11-19T12:42:47;99194.63;;;14.29;65.30
35908;BME280;22003;50.320;8.054;2023-11-19T12:45:13;99184.16;;;14.36;64.71
35908;BME280;22003;50.320;8.054;2023-11-19T12:47:40;99165.84;;;14.33;64.72
35908;BME280;22003;50.320;8.054;2023-11-19T12:50:06;99191.34;;;14.35;64.86
35908;BME280;22003;50.320;8.054;2023-11-19T12:52:32;99178.94;;;14.26;65.26
35908;BME280;22003;50.320;8.054;2023-11-19T12:54:58;99164.38;;;14.38;65.06
35908;BME280;22003;50.320;8.054;2023-11-19T12:57:42;99152.91;;;14.46;64.67
35908;BME280;22003;50.320;8.054;2023-11-19T13:00:18;99169.81;;;14.55;63.82
35908;BME280;22003;50.320;8.054;2023-11-19T13:02:50;99145.69;;;14.56;63.73
35908;BME280;22003;50.320;8.054;2023-11-19T13:05:31;99151.38;;;14.43;63.39
35908;BME280;22003;50.320;8.054;2023-11-19T13:08:05;99154.22;;;14.42;64.68